createdAt,value
2023-05-10T00:00:39.895Z,94172.63
2023-05-10T00:03:06.734Z,94173.72
2023-05-10T00:05:33.907Z,94168.22
2023-05-10T00:08:00.789Z,94173.28
2023-05-10T00:10:27.591Z,94175.38
2023-05-10T00:12:54.594Z,94171.09
2023-05-10T00:15:21.515Z,94172.09
2023-05-10T00:17:48.678Z,94179.50
2023-05-10T00:20:16.452Z,94172.59
2023-05-10T00:22:43.442Z,94172.63
2023-05-10T00:25:11.336Z,94173.25
2023-05-10T00:27:38.360Z,94177.06
2023-05-10T00:30:06.426Z,94176.81
2023-05-10T00:32:33.273Z,94175.66
2023-05-10T00:35:00.094Z,94179.78
2023-05-10T00:37:27.374Z,94173.16
2023-05-10T00:39:54.462Z,94170.41
2023-05-10T00:42:21.650Z,94170.94
2023-05-10T00:44:48.655Z,94175.53
2023-05-10T00:47:17.006Z,94174.91
2023-05-10T00:49:44.248Z,94168.34
2023-05-10T00:52:11.652Z,94169.25
2023-05-10T00:54:38.647Z,94177.13
2023-05-10T00:57:05.804Z,94174.66
2023-05-10T00:59:33.270Z,94168.44
2023-05-10T01:02:00.175Z,94166.81
2023-05-10T01:04:27.012Z,94177.16
2023-05-10T01:06:55.073Z,94169.91
2023-05-10T01:09:23.086Z,94173.69
2023-05-10T01:11:51.406Z,94168.75
2023-05-10T01:14:20.877Z,94168.28
2023-05-10T01:16:49.858Z,94171.84
2023-05-10T01:19:23.748Z,94174.56
2023-05-10T01:22:16.097Z,94173.69
2023-05-10T01:25:12.320Z,94164.78
2023-05-10T01:28:17.961Z,94159.47
2023-05-10T01:31:07.120Z,94162.81
2023-05-10T01:33:38.458Z,94169.22
2023-05-10T01:36:27.210Z,94158.22
2023-05-10T01:39:32.396Z,94165.06
2023-05-10T01:42:06.059Z,94156.06
2023-05-10T01:44:40.402Z,94163.84
2023-05-10T01:47:11.258Z,94157.94
2023-05-10T01:49:47.517Z,94158.66
2023-05-10T01:52:21.237Z,94161.84
2023-05-10T01:55:01.471Z,94168.91
2023-05-10T01:57:36.283Z,94165.88
2023-05-10T02:00:06.046Z,94165.22
2023-05-10T02:02:45.615Z,94172.50
2023-05-10T02:05:14.853Z,94166.28
2023-05-10T02:07:42.803Z,94165.31
2023-05-10T02:10:11.204Z,94172.22
2023-05-10T02:12:42.462Z,94172.00
2023-05-10T02:15:11.502Z,94164.53
2023-05-10T02:17:40.198Z,94164.53
2023-05-10T02:20:08.848Z,94168.72
2023-05-10T02:22:37.987Z,94168.31
2023-05-10T02:25:05.561Z,94168.38
2023-05-10T02:27:32.988Z,94160.03
2023-05-10T02:30:00.458Z,94155.69
2023-05-10T02:32:29.182Z,94167.69
2023-05-10T02:34:58.405Z,94156.41
2023-05-10T02:37:26.328Z,94163.75
2023-05-10T02:39:56.110Z,94169.56
2023-05-10T02:42:28.861Z,94156.44
2023-05-10T02:45:02.189Z,94167.09
2023-05-10T02:47:30.031Z,94161.31
2023-05-10T02:49:56.896Z,94155.31
2023-05-10T02:52:37.635Z,94165.41
2023-05-10T02:55:07.190Z,94160.19
2023-05-10T02:57:35.784Z,94164.09
2023-05-10T03:00:04.349Z,94172.09
2023-05-10T03:02:32.173Z,94170.19
2023-05-10T03:04:59.709Z,94168.44
2023-05-10T03:07:27.034Z,94172.63
2023-05-10T03:09:54.226Z,94174.03
2023-05-10T03:12:39.956Z,94176.13
2023-05-10T03:15:23.336Z,94175.59
2023-05-10T03:18:03.153Z,94185.59
2023-05-10T03:20:42.616Z,94181.03
2023-05-10T03:23:20.218Z,94194.88
2023-05-10T03:25:50.106Z,94181.63
2023-05-10T03:28:19.351Z,94193.09
2023-05-10T03:30:47.987Z,94191.16
2023-05-10T03:33:15.260Z,94196.50
2023-05-10T03:35:46.858Z,94193.69
2023-05-10T03:38:14.733Z,94197.78
2023-05-10T03:40:41.715Z,94193.63
2023-05-10T03:43:09.381Z,94196.44
2023-05-10T03:45:37.199Z,94201.34
2023-05-10T03:48:04.538Z,94205.47
2023-05-10T03:50:31.531Z,94201.97
2023-05-10T03:52:58.628Z,94208.47
2023-05-10T03:55:25.605Z,94203.59
2023-05-10T03:57:52.514Z,94207.00
2023-05-10T04:00:19.700Z,94210.34
2023-05-10T04:02:50.301Z,94207.16
2023-05-10T04:05:19.713Z,94214.06
2023-05-10T04:07:48.135Z,94205.47
2023-05-10T04:10:15.244Z,94209.63
2023-05-10T04:12:42.174Z,94207.59
2023-05-10T04:15:10.120Z,94209.59
2023-05-10T04:17:37.365Z,94218.44
2023-05-10T04:20:04.611Z,94217.91
2023-05-10T04:22:31.778Z,94219.78
2023-05-10T04:24:58.488Z,94215.91
2023-05-10T04:27:25.289Z,94229.53
2023-05-10T04:29:52.999Z,94225.34
2023-05-10T04:32:20.143Z,94225.06
2023-05-10T04:34:48.022Z,94226.88
2023-05-10T04:37:15.000Z,94230.69
2023-05-10T04:39:42.445Z,94232.34
2023-05-10T04:42:09.904Z,94228.66
2023-05-10T04:44:37.153Z,94234.94
2023-05-10T04:47:04.168Z,94231.22
2023-05-10T04:49:31.072Z,94228.31
2023-05-10T04:51:57.833Z,94237.22
2023-05-10T04:54:25.096Z,94240.06
2023-05-10T04:56:52.704Z,94231.56
2023-05-10T04:59:19.663Z,94238.19
2023-05-10T05:01:46.449Z,94239.03
2023-05-10T05:04:13.251Z,94235.56
2023-05-10T05:06:40.285Z,94235.81
2023-05-10T05:09:06.988Z,94239.72
2023-05-10T05:11:33.718Z,94240.66
2023-05-10T05:14:00.688Z,94239.72
2023-05-10T05:16:27.796Z,94244.34
2023-05-10T05:18:54.648Z,94242.31
2023-05-10T05:21:21.506Z,94241.47
2023-05-10T05:23:48.850Z,94245.94
2023-05-10T05:26:16.291Z,94253.06
2023-05-10T05:28:43.270Z,94255.91
2023-05-10T05:31:10.581Z,94252.84
2023-05-10T05:33:38.484Z,94255.63
2023-05-10T05:36:06.506Z,94255.84
2023-05-10T05:38:33.994Z,94269.66
2023-05-10T05:41:00.814Z,94269.06
2023-05-10T05:43:27.897Z,94271.09
2023-05-10T05:45:55.026Z,94275.28
2023-05-10T05:48:22.347Z,94285.41
2023-05-10T05:50:49.264Z,94280.56
2023-05-10T05:53:16.824Z,94281.25
2023-05-10T05:55:58.211Z,94284.03
2023-05-10T05:58:26.154Z,94287.41
2023-05-10T06:00:53.714Z,94286.63
2023-05-10T06:03:21.019Z,94285.38
2023-05-10T06:05:48.263Z,94288.06
2023-05-10T06:08:15.001Z,94290.81
2023-05-10T06:10:41.847Z,94291.97
2023-05-10T06:13:08.830Z,94296.97
2023-05-10T06:15:35.762Z,94299.41
2023-05-10T06:18:02.542Z,94304.38
2023-05-10T06:20:29.525Z,94306.09
2023-05-10T06:22:56.327Z,94316.56
2023-05-10T06:25:23.063Z,94330.88
2023-05-10T06:27:53.454Z,94326.28
2023-05-10T06:30:21.308Z,94330.03
2023-05-10T06:32:48.435Z,94334.47
2023-05-10T06:35:15.468Z,94337.72
2023-05-10T06:37:42.407Z,94335.81
2023-05-10T06:40:10.416Z,94337.34
2023-05-10T06:42:37.320Z,94335.63
2023-05-10T06:45:05.126Z,94342.63
2023-05-10T06:47:31.923Z,94336.56
2023-05-10T06:49:59.045Z,94341.38
2023-05-10T06:52:26.242Z,94341.53
2023-05-10T06:54:53.050Z,94339.88
2023-05-10T06:57:31.215Z,94338.00
2023-05-10T07:00:00.000Z,94335.28
2023-05-10T07:02:27.301Z,94335.44
2023-05-10T07:04:55.534Z,94338.56
2023-05-10T07:07:22.349Z,94342.28
2023-05-10T07:09:50.003Z,94343.41
2023-05-10T07:12:16.915Z,94349.69
2023-05-10T07:14:44.056Z,94352.75
2023-05-10T07:17:11.345Z,94354.72
2023-05-10T07:19:38.380Z,94346.59
2023-05-10T07:22:05.166Z,94350.00
2023-05-10T07:24:33.318Z,94354.31
2023-05-10T07:27:00.413Z,94354.25
2023-05-10T07:29:27.451Z,94356.53
2023-05-10T07:31:57.084Z,94353.13
2023-05-10T07:34:25.761Z,94353.78
2023-05-10T07:36:53.672Z,94349.34
2023-05-10T07:39:27.616Z,94358.81
2023-05-10T07:41:58.215Z,94364.38
2023-05-10T07:44:25.156Z,94364.38
2023-05-10T07:46:52.380Z,94357.41
2023-05-10T07:49:19.421Z,94370.84
2023-05-10T07:51:46.142Z,94369.06
2023-05-10T07:54:13.996Z,94366.16
2023-05-10T07:56:46.562Z,94366.41
2023-05-10T07:59:17.063Z,94369.47
2023-05-10T08:01:44.502Z,94369.44
2023-05-10T08:04:11.472Z,94368.03
2023-05-10T08:06:38.722Z,94365.84
2023-05-10T08:09:05.918Z,94358.72
2023-05-10T08:11:33.708Z,94360.00
2023-05-10T08:14:01.793Z,94361.50
2023-05-10T08:16:28.653Z,94363.88
2023-05-10T08:18:56.438Z,94368.78
2023-05-10T08:21:23.310Z,94367.22
2023-05-10T08:23:50.782Z,94361.13
2023-05-10T08:26:17.466Z,94370.56
2023-05-10T08:28:44.457Z,94362.03
2023-05-10T08:31:11.433Z,94373.75
2023-05-10T08:33:38.179Z,94371.72
2023-05-10T08:36:05.468Z,94368.75
2023-05-10T08:38:32.335Z,94371.38
2023-05-10T08:41:00.464Z,94374.97
2023-05-10T08:43:31.249Z,94363.47
2023-05-10T08:46:01.725Z,94373.22
2023-05-10T08:48:30.124Z,94377.69
2023-05-10T08:51:00.449Z,94375.94
2023-05-10T08:53:29.868Z,94373.06
2023-05-10T08:55:56.835Z,94375.72
2023-05-10T08:58:23.705Z,94371.59
2023-05-10T09:00:54.641Z,94374.31
2023-05-10T09:03:21.706Z,94375.72
2023-05-10T09:05:49.986Z,94375.75
2023-05-10T09:08:19.976Z,94377.34
2023-05-10T09:10:48.599Z,94367.06
2023-05-10T09:13:16.576Z,94372.09
2023-05-10T09:15:45.895Z,94373.44
2023-05-10T09:18:13.400Z,94367.91
2023-05-10T09:20:41.378Z,94381.66
2023-05-10T09:23:08.656Z,94370.66
2023-05-10T09:25:35.868Z,94357.34
2023-05-10T09:28:02.594Z,94378.69
2023-05-10T09:30:31.160Z,94379.25
2023-05-10T09:32:59.975Z,94375.38
2023-05-10T09:35:29.987Z,94375.34
2023-05-10T09:38:02.309Z,94388.66
2023-05-10T09:40:30.625Z,94387.75
2023-05-10T09:43:03.016Z,94380.69
2023-05-10T09:45:32.056Z,94378.44
2023-05-10T09:48:00.523Z,94378.66
2023-05-10T09:50:27.780Z,94372.38
2023-05-10T09:53:00.363Z,94380.03
2023-05-10T09:55:45.667Z,94375.53
2023-05-10T09:58:13.698Z,94370.69
2023-05-10T10:00:42.435Z,94369.91
2023-05-10T10:03:16.738Z,94373.59
2023-05-10T10:05:44.834Z,94383.78
2023-05-10T10:08:13.531Z,94382.28
2023-05-10T10:10:41.612Z,94389.53
2023-05-10T10:13:09.305Z,94383.81
2023-05-10T10:15:36.839Z,94387.88
2023-05-10T10:18:05.220Z,94378.28
2023-05-10T10:20:33.224Z,94384.69
2023-05-10T10:22:59.966Z,94386.56
2023-05-10T10:25:27.386Z,94370.56
2023-05-10T10:27:54.064Z,94374.84
2023-05-10T10:30:30.888Z,94384.03
2023-05-10T10:33:20.203Z,94378.84
2023-05-10T10:35:56.581Z,94374.88
2023-05-10T10:38:23.936Z,94371.41
2023-05-10T10:41:03.574Z,94373.31
2023-05-10T10:43:30.560Z,94374.69
2023-05-10T10:46:18.144Z,94384.56
2023-05-10T10:48:51.052Z,94369.28
2023-05-10T10:51:18.093Z,94378.81
2023-05-10T10:53:45.180Z,94374.88
2023-05-10T10:56:16.323Z,94373.59
2023-05-10T10:58:52.257Z,94382.91
2023-05-10T11:01:20.058Z,94382.97
2023-05-10T11:04:19.229Z,94381.91
2023-05-10T11:06:46.266Z,94374.03
2023-05-10T11:09:14.137Z,94372.97
2023-05-10T11:11:56.165Z,94370.81
2023-05-10T11:14:23.658Z,94385.00
2023-05-10T11:16:51.228Z,94372.50
2023-05-10T11:19:19.034Z,94373.03
2023-05-10T11:22:13.167Z,94374.41
2023-05-10T11:24:40.100Z,94370.69
2023-05-10T11:27:07.322Z,94362.63
2023-05-10T11:29:34.030Z,94370.47
2023-05-10T11:32:04.644Z,94366.34
2023-05-10T11:34:34.783Z,94368.94
2023-05-10T11:37:01.991Z,94369.78
2023-05-10T11:39:31.197Z,94369.31
2023-05-10T11:41:59.374Z,94369.13
2023-05-10T11:44:33.313Z,94376.84
2023-05-10T11:47:01.816Z,94384.03
2023-05-10T11:49:28.797Z,94388.81
2023-05-10T11:52:08.205Z,94394.25
2023-05-10T11:54:37.695Z,94398.09
2023-05-10T11:57:05.030Z,94409.72
2023-05-10T11:59:32.175Z,94410.38
2023-05-10T12:01:59.636Z,94419.47
2023-05-10T12:04:28.881Z,94420.69
2023-05-10T12:06:56.736Z,94433.59
2023-05-10T12:12:00.791Z,94428.34
2023-05-10T12:14:27.993Z,94424.25
2023-05-10T12:16:54.732Z,94441.78
2023-05-10T12:19:22.218Z,94439.09
2023-05-10T12:21:49.222Z,94433.22
2023-05-10T12:24:18.837Z,94438.28
2023-05-10T12:26:46.769Z,94434.59
2023-05-10T12:29:15.407Z,94433.69
2023-05-10T12:32:00.494Z,94439.56
2023-05-10T12:34:32.256Z,94444.06
2023-05-10T12:36:59.896Z,94448.50
2023-05-10T12:39:26.932Z,94456.22
2023-05-10T12:41:53.993Z,94455.25
2023-05-10T12:44:20.757Z,94457.22
2023-05-10T12:46:47.613Z,94465.63
2023-05-10T12:49:14.365Z,94455.94
2023-05-10T12:51:41.166Z,94461.84
2023-05-10T12:54:08.648Z,94469.34
2023-05-10T12:56:35.451Z,94465.09
2023-05-10T12:59:02.458Z,94459.53
2023-05-10T13:01:29.417Z,94457.78
2023-05-10T13:03:56.131Z,94454.28
2023-05-10T13:06:22.847Z,94450.31
2023-05-10T13:08:49.998Z,94457.81
2023-05-10T13:11:18.050Z,94457.75
2023-05-10T13:13:44.814Z,94459.22
2023-05-10T13:16:11.572Z,94455.25
2023-05-10T13:18:39.211Z,94458.88
2023-05-10T13:21:06.475Z,94457.25
2023-05-10T13:23:33.255Z,94460.09
2023-05-10T13:26:00.138Z,94459.59
2023-05-10T13:28:27.774Z,94455.03
2023-05-10T13:30:54.536Z,94458.31
2023-05-10T13:33:21.231Z,94455.34
2023-05-10T13:35:48.280Z,94456.50
2023-05-10T13:38:15.170Z,94452.03
2023-05-10T13:40:42.566Z,94459.09
2023-05-10T13:43:09.352Z,94458.03
2023-05-10T13:45:36.074Z,94452.84
2023-05-10T13:48:03.431Z,94455.63
2023-05-10T13:50:31.098Z,94460.16
2023-05-10T13:52:57.862Z,94452.41
2023-05-10T13:55:24.614Z,94450.97
2023-05-10T13:57:51.530Z,94452.94
2023-05-10T14:00:18.771Z,94461.00
2023-05-10T14:02:45.580Z,94459.88
2023-05-10T14:05:12.855Z,94451.88
2023-05-10T14:07:39.747Z,94458.41
2023-05-10T14:10:07.304Z,94459.38
2023-05-10T14:12:34.150Z,94462.31
2023-05-10T14:15:01.336Z,94452.41
2023-05-10T14:17:28.700Z,94453.00
2023-05-10T14:19:55.429Z,94451.50
2023-05-10T14:22:22.218Z,94454.00
2023-05-10T14:24:49.065Z,94457.66
2023-05-10T14:27:17.394Z,94459.66
2023-05-10T14:29:44.349Z,94446.91
2023-05-10T14:32:11.617Z,94447.69
2023-05-10T14:34:38.637Z,94447.56
2023-05-10T14:37:05.674Z,94448.81
2023-05-10T14:39:32.665Z,94454.94
2023-05-10T14:41:59.700Z,94447.06
2023-05-10T14:44:27.258Z,94444.97
2023-05-10T14:46:53.970Z,94445.00
2023-05-10T14:49:23.820Z,94453.13
2023-05-10T14:51:50.685Z,94453.22
2023-05-10T14:54:17.866Z,94455.97
2023-05-10T14:56:45.519Z,94456.31
2023-05-10T14:59:12.228Z,94452.19
2023-05-10T15:01:42.306Z,94462.03
2023-05-10T15:04:10.356Z,94452.19
2023-05-10T15:06:37.955Z,94457.44
2023-05-10T15:09:04.851Z,94471.22
2023-05-10T15:11:32.002Z,94462.75
2023-05-10T15:13:58.752Z,94468.91
2023-05-10T15:16:25.841Z,94465.88
2023-05-10T15:18:52.720Z,94475.00
2023-05-10T15:21:19.437Z,94477.16
2023-05-10T15:23:46.187Z,94468.06
2023-05-10T15:26:12.862Z,94479.16
2023-05-10T15:28:40.113Z,94484.09
2023-05-10T15:31:07.019Z,94481.25
2023-05-10T15:33:34.208Z,94495.41
2023-05-10T15:36:01.002Z,94498.50
2023-05-10T15:38:27.778Z,94492.91
2023-05-10T15:40:58.035Z,94502.22
2023-05-10T15:43:26.355Z,94494.47
2023-05-10T15:45:53.060Z,94490.66
2023-05-10T15:48:20.031Z,94494.66
2023-05-10T15:50:47.223Z,94495.25
2023-05-10T15:53:14.052Z,94500.72
2023-05-10T15:55:41.191Z,94493.91
2023-05-10T15:58:08.226Z,94502.66
2023-05-10T16:00:35.071Z,94500.03
2023-05-10T16:03:02.389Z,94503.25
2023-05-10T16:05:32.648Z,94498.03
2023-05-10T16:08:00.463Z,94507.47
2023-05-10T16:10:27.928Z,94509.53
2023-05-10T16:12:55.370Z,94513.69
2023-05-10T16:15:22.780Z,94515.28
2023-05-10T16:17:50.314Z,94521.28
2023-05-10T16:20:17.551Z,94519.03
2023-05-10T16:22:44.551Z,94517.94
2023-05-10T16:25:13.485Z,94517.59
2023-05-10T16:27:41.091Z,94518.53
2023-05-10T16:30:08.644Z,94516.78
2023-05-10T16:32:35.668Z,94520.75
2023-05-10T16:35:03.850Z,94519.22
2023-05-10T16:37:31.508Z,94524.53
2023-05-10T16:39:58.904Z,94528.69
2023-05-10T16:42:28.128Z,94525.81
2023-05-10T16:44:55.145Z,94524.09
2023-05-10T16:47:21.918Z,94534.69
2023-05-10T16:49:49.399Z,94535.47
2023-05-10T16:52:16.815Z,94543.31
2023-05-10T16:54:43.623Z,94543.53
2023-05-10T16:57:10.394Z,94541.75
2023-05-10T16:59:37.610Z,94538.31
2023-05-10T17:02:05.526Z,94541.34
2023-05-10T17:04:32.555Z,94545.81
2023-05-10T17:07:00.094Z,94545.25
2023-05-10T17:09:27.179Z,94551.41
2023-05-10T17:11:54.001Z,94549.03
2023-05-10T17:14:20.868Z,94555.94
2023-05-10T17:16:48.547Z,94553.63
2023-05-10T17:19:16.158Z,94552.72
2023-05-10T17:21:42.875Z,94563.91
2023-05-10T17:24:09.721Z,94556.25
2023-05-10T17:26:37.272Z,94562.44
2023-05-10T17:29:04.465Z,94567.13
2023-05-10T17:31:33.428Z,94565.97
2023-05-10T17:34:00.304Z,94567.72
2023-05-10T17:36:27.087Z,94566.03
2023-05-10T17:38:54.161Z,94570.09
2023-05-10T17:41:21.918Z,94574.81
2023-05-10T17:43:50.360Z,94570.59
2023-05-10T17:46:18.244Z,94583.13
2023-05-10T17:48:45.122Z,94575.13
2023-05-10T17:51:12.645Z,94576.91
2023-05-10T17:53:40.788Z,94581.75
2023-05-10T17:56:07.901Z,94583.00
2023-05-10T17:58:38.199Z,94580.06
2023-05-10T18:01:05.933Z,94582.06
2023-05-10T18:03:33.060Z,94584.00
2023-05-10T18:06:00.145Z,94582.09
2023-05-10T18:08:28.847Z,94583.66
2023-05-10T18:10:55.816Z,94589.72
2023-05-10T18:13:22.887Z,94593.25
2023-05-10T18:15:50.003Z,94589.47
2023-05-10T18:18:17.188Z,94593.88
2023-05-10T18:20:46.440Z,94593.09
2023-05-10T18:23:14.279Z,94599.69
2023-05-10T18:25:41.140Z,94605.16
2023-05-10T18:28:08.657Z,94592.06
2023-05-10T18:30:35.365Z,94605.94
2023-05-10T18:33:02.244Z,94601.75
2023-05-10T18:35:29.422Z,94604.75
2023-05-10T18:37:56.266Z,94612.69
2023-05-10T18:40:22.977Z,94610.44
2023-05-10T18:42:50.652Z,94616.41
2023-05-10T18:45:18.182Z,94620.19
2023-05-10T18:47:46.016Z,94618.69
2023-05-10T18:50:13.148Z,94616.56
2023-05-10T18:52:39.924Z,94618.47
2023-05-10T18:55:07.353Z,94617.97
2023-05-10T18:57:41.250Z,94616.56
2023-05-10T19:00:10.469Z,94619.63
2023-05-10T19:02:38.502Z,94623.56
2023-05-10T19:05:06.796Z,94616.88
2023-05-10T19:07:34.247Z,94621.78
2023-05-10T19:10:01.166Z,94615.94
2023-05-10T19:12:28.605Z,94619.03
2023-05-10T19:14:55.398Z,94619.59
2023-05-10T19:17:24.777Z,94622.94
2023-05-10T19:19:51.799Z,94623.53
2023-05-10T19:22:31.941Z,94616.38
2023-05-10T19:25:07.826Z,94624.38
2023-05-10T19:27:34.716Z,94616.28
2023-05-10T19:30:02.459Z,94619.19
2023-05-10T19:32:29.394Z,94619.81
2023-05-10T19:34:57.178Z,94619.06
2023-05-10T19:37:25.242Z,94622.09
2023-05-10T19:39:52.142Z,94622.59
2023-05-10T19:42:20.545Z,94619.75
2023-05-10T19:44:48.389Z,94626.19
2023-05-10T19:47:15.385Z,94629.66
2023-05-10T19:49:42.152Z,94620.03
2023-05-10T19:52:10.664Z,94621.03
2023-05-10T19:54:39.163Z,94631.28
2023-05-10T19:57:06.906Z,94632.56
2023-05-10T19:59:33.843Z,94639.06
2023-05-10T20:02:00.694Z,94636.41
2023-05-10T20:04:28.914Z,94628.34
2023-05-10T20:06:55.846Z,94626.91
2023-05-10T20:09:22.646Z,94623.88
2023-05-10T20:11:49.478Z,94630.84
2023-05-10T20:14:16.809Z,94635.31
2023-05-10T20:16:43.685Z,94627.91
2023-05-10T20:19:12.093Z,94634.34
2023-05-10T20:21:38.837Z,94636.59
2023-05-10T20:24:07.899Z,94637.09
2023-05-10T20:26:35.131Z,94633.91
2023-05-10T20:29:02.326Z,94630.22
2023-05-10T20:31:29.402Z,94635.50
2023-05-10T20:33:56.262Z,94631.41
2023-05-10T20:36:23.134Z,94626.34
2023-05-10T20:38:50.514Z,94632.66
2023-05-10T20:41:17.347Z,94623.84
2023-05-10T20:43:44.093Z,94629.66
2023-05-10T20:46:11.502Z,94625.63
2023-05-10T20:48:38.348Z,94632.78
2023-05-10T20:51:05.668Z,94632.50
2023-05-10T20:53:33.240Z,94631.88
2023-05-10T20:56:00.025Z,94626.00
2023-05-10T20:58:27.046Z,94621.16
2023-05-10T21:00:53.832Z,94620.47
2023-05-10T21:03:20.736Z,94622.22
2023-05-10T21:05:47.484Z,94615.84
2023-05-10T21:08:14.233Z,94615.47
2023-05-10T21:10:41.052Z,94606.53
2023-05-10T21:13:08.080Z,94609.66
2023-05-10T21:15:35.088Z,94599.88
2023-05-10T21:18:02.314Z,94606.31
2023-05-10T21:20:30.140Z,94606.63
2023-05-10T21:22:56.887Z,94601.16
2023-05-10T21:25:23.832Z,94602.16
2023-05-10T21:27:51.582Z,94595.78
2023-05-10T21:30:19.793Z,94606.34
2023-05-10T21:32:47.619Z,94600.09
2023-05-10T21:35:14.424Z,94600.03
2023-05-10T21:37:41.164Z,94608.06
2023-05-10T21:40:08.546Z,94608.88
2023-05-10T21:42:35.283Z,94600.81
2023-05-10T21:45:02.041Z,94596.03
2023-05-10T21:47:29.709Z,94599.59
2023-05-10T21:49:56.466Z,94602.94
2023-05-10T21:52:23.418Z,94602.56
2023-05-10T21:54:50.174Z,94596.56
2023-05-10T21:57:16.924Z,94610.09
2023-05-10T21:59:43.688Z,94617.47
2023-05-10T22:02:10.504Z,94612.69
2023-05-10T22:04:37.278Z,94602.72
2023-05-10T22:07:04.294Z,94598.97
2023-05-10T22:09:31.019Z,94606.91
2023-05-10T22:11:57.793Z,94607.34
2023-05-10T22:14:24.925Z,94598.63
2023-05-10T22:16:51.748Z,94605.53
2023-05-10T22:19:19.165Z,94604.47
2023-05-10T22:21:46.031Z,94604.44
2023-05-10T22:24:13.503Z,94592.09
2023-05-10T22:26:40.297Z,94605.16
2023-05-10T22:29:07.451Z,94602.84
2023-05-10T22:31:34.571Z,94605.06
2023-05-10T22:34:02.044Z,94605.09
2023-05-10T22:36:30.572Z,94600.19
2023-05-10T22:38:58.050Z,94597.47
2023-05-10T22:41:24.981Z,94599.44
2023-05-10T22:43:51.731Z,94591.22
2023-05-10T22:46:18.491Z,94599.53
2023-05-10T22:48:45.346Z,94598.63
2023-05-10T22:51:12.095Z,94595.16
2023-05-10T22:53:39.090Z,94593.41
2023-05-10T22:56:06.525Z,94589.94
2023-05-10T22:58:33.507Z,94595.34
2023-05-10T23:01:00.682Z,94592.63
2023-05-10T23:03:27.530Z,94596.97
2023-05-10T23:05:54.258Z,94588.38
2023-05-10T23:08:21.536Z,94600.31
2023-05-10T23:10:48.545Z,94589.31
2023-05-10T23:13:15.263Z,94586.44
2023-05-10T23:15:43.631Z,94585.16
2023-05-10T23:18:10.552Z,94590.31
2023-05-10T23:20:37.316Z,94596.34
2023-05-10T23:23:04.667Z,94594.91
2023-05-10T23:25:31.621Z,94595.81
2023-05-10T23:27:58.335Z,94593.81
2023-05-10T23:30:25.265Z,94590.47
2023-05-10T23:32:52.372Z,94590.84
2023-05-10T23:35:19.971Z,94595.13
2023-05-10T23:37:46.690Z,94600.56
2023-05-10T23:40:14.319Z,94591.16
2023-05-10T23:42:41.306Z,94598.03
2023-05-10T23:45:08.546Z,94581.69
2023-05-10T23:47:35.321Z,94585.03
2023-05-10T23:50:02.227Z,94577.09
2023-05-10T23:52:29.242Z,94576.72
2023-05-10T23:54:55.926Z,94573.03
2023-05-10T23:57:22.669Z,94582.81
2023-05-10T23:59:50.150Z,94571.59
